Time;durP1;ratioP1;P1;durP2;ratioP2;P2;SDS_P1;SDS_P2;PMS_P1;PMS_P2;Temp;Humidity;BMP_temperature;BMP_pressure;BME280_temperature;BME280_humidity;BME280_pressure;Samples;Min_cycle;Max_cycle;Signal;HPM_P1;HPM_P2
2021/03/12 00:00:41;;;;;;;0.20;0.20;;;;;;;9.13;66.91;98478.34;4914052;29;20229;-83
2021/03/12 00:03:38;;;;;;;0.30;0.20;;;;;;;9.13;66.38;98459.63;4927683;29;20225;-82
2021/03/12 00:06:36;;;;;;;0.53;0.30;;;;;;;9.11;65.81;98460.91;4911088;29;20528;-80
2021/03/12 00:09:28;;;;;;;0.20;0.20;;;;;;;9.08;65.51;98494.25;4915173;29;20281;-82
2021/03/12 00:12:28;;;;;;;0.20;0.20;;;;;;;9.10;65.59;98475.31;4919215;29;20233;-82
2021/03/12 00:15:27;;;;;;;0.40;0.30;;;;;;;9.01;64.70;98474.06;4902142;29;20249;-83
2021/03/12 00:18:37;;;;;;;0.20;0.20;;;;;;;8.96;65.09;98463.31;4917416;29;20249;-81
2021/03/12 00:21:29;;;;;;;0.40;0.20;;;;;;;9.07;65.24;98503.31;4914050;29;20238;-79
2021/03/12 00:24:23;;;;;;;0.10;0.10;;;;;;;8.83;65.44;98485.72;4929232;29;20334;-81
2021/03/12 00:27:19;;;;;;;0.60;0.30;;;;;;;8.94;65.14;98497.44;4882844;29;20229;-82
2021/03/12 00:30:19;;;;;;;0.30;0.17;;;;;;;8.77;65.70;98487.47;4905650;29;20233;-80
2021/03/12 00:33:31;;;;;;;0.40;0.20;;;;;;;9.00;65.41;98520.53;4930084;29;20254;-82
2021/03/12 00:36:20;;;;;;;0.57;0.20;;;;;;;8.86;65.62;98487.13;4928911;29;20222;-80
2021/03/12 00:39:32;;;;;;;0.20;0.10;;;;;;;8.91;65.03;98474.69;4915054;29;20230;-80
2021/03/12 00:42:26;;;;;;;0.20;0.20;;;;;;;8.77;65.05;98458.09;4892605;29;20528;-80
2021/03/12 00:45:20;;;;;;;0.10;0.10;;;;;;;8.81;64.17;98443.25;4901050;29;20416;-81
2021/03/12 00:48:31;;;;;;;0.50;0.30;;;;;;;8.96;64.21;98473.97;4912337;29;20222;-80
2021/03/12 00:51:23;;;;;;;1.57;0.30;;;;;;;8.94;63.86;98489.41;4912290;29;20245;-80
2021/03/12 00:54:16;;;;;;;0.80;0.30;;;;;;;8.97;63.21;98465.72;4868035;29;20333;-81
2021/03/12 00:57:38;;;;;;;1.13;0.40;;;;;;;9.02;63.04;98479.16;4882581;29;20222;-81
2021/03/12 01:00:43;;;;;;;0.20;0.17;;;;;;;9.13;62.80;98469.50;4897570;29;20681;-80
2021/03/12 01:03:49;;;;;;;0.67;0.30;;;;;;;8.92;63.45;98451.44;4917445;29;20229;-81
2021/03/12 01:07:05;;;;;;;1.10;0.30;;;;;;;8.98;63.02;98471.88;4899653;29;20302;-82
2021/03/12 01:10:01;;;;;;;1.07;0.30;;;;;;;9.05;63.51;98467.22;4913009;29;20233;-81
2021/03/12 01:12:56;;;;;;;0.60;0.30;;;;;;;8.86;63.02;98426.50;4909784;29;20237;-80
2021/03/12 01:15:48;;;;;;;1.53;0.30;;;;;;;8.99;63.19;98446.78;4879567;29;20262;-82
2021/03/12 01:18:41;;;;;;;0.97;0.40;;;;;;;9.04;63.27;98434.34;4902188;29;20226;-82
2021/03/12 01:21:33;;;;;;;1.33;0.30;;;;;;;8.92;63.20;98414.84;4915613;29;20222;-82
2021/03/12 01:24:25;;;;;;;0.80;0.30;;;;;;;8.91;62.86;98401.75;4899450;29;20242;-82
2021/03/12 01:27:26;;;;;;;0.50;0.30;;;;;;;9.08;62.69;98429.31;4930236;29;20714;-81
2021/03/12 01:30:30;;;;;;;0.43;0.23;;;;;;;9.37;63.13;98460.34;4914169;29;20226;-82
2021/03/12 01:33:41;;;;;;;2.57;0.30;;;;;;;9.23;62.55;98424.25;4899298;29;20237;-81
2021/03/12 01:36:44;;;;;;;0.67;0.30;;;;;;;9.52;62.11;98470.47;4892442;29;20231;-83
2021/03/12 01:40:01;;;;;;;0.97;0.30;;;;;;;9.37;61.94;98454.19;4910499;29;20234;-81
2021/03/12 01:43:08;;;;;;;1.10;0.30;;;;;;;9.38;62.51;98461.16;4894835;29;20253;-83
2021/03/12 01:46:31;;;;;;;0.73;0.40;;;;;;;9.51;61.96;98475.03;4914990;29;20285;-82
2021/03/12 01:49:21;;;;;;;0.70;0.30;;;;;;;9.83;61.38;98453.91;4898939;29;20293;-82
2021/03/12 01:52:24;;;;;;;1.07;0.30;;;;;;;10.04;60.18;98468.41;4928814;29;20258;-83
2021/03/12 01:55:44;;;;;;;0.57;0.20;;;;;;;9.98;60.50;98462.19;4929528;29;20226;-82
2021/03/12 01:58:56;;;;;;;0.20;0.10;;;;;;;10.06;60.85;98475.16;4912125;29;20229;-82
2021/03/12 02:02:13;;;;;;;1.07;0.20;;;;;;;10.01;60.64;98461.69;4912293;29;20229;-82
2021/03/12 02:05:15;;;;;;;0.77;0.27;;;;;;;9.89;60.86;98460.16;4911143;29;20309;-82
2021/03/12 02:08:15;;;;;;;0.93;0.23;;;;;;;9.89;61.25;98468.19;4928107;29;20673;-82
2021/03/12 02:12:04;;;;;;;1.27;0.40;;;;;;;9.92;61.60;98481.06;4926006;23;20233;31
2021/03/12 02:15:44;;;;;;;0.43;0.20;;;;;;;9.80;62.16;98477.66;4898923;23;20205;-82
2021/03/12 02:19:34;;;;;;;0.33;0.20;;;;;;;9.71;62.69;98488.75;4966078;23;20225;-80
2021/03/12 02:23:19;;;;;;;1.00;0.20;;;;;;;9.77;62.48;98494.19;4977609;23;20241;-81
2021/03/12 02:26:45;;;;;;;0.57;0.20;;;;;;;9.80;62.94;98507.09;4958154;29;20216;-80
2021/03/12 02:30:25;;;;;;;0.43;0.10;;;;;;;9.84;62.36;98513.56;4943865;29;20185;-84
2021/03/12 02:34:14;;;;;;;0.70;0.30;;;;;;;9.76;63.21;98512.09;5039975;23;20208;-80
2021/03/12 02:37:52;;;;;;;0.93;0.30;;;;;;;9.65;63.13;98527.16;4958735;29;20244;-82
2021/03/12 02:41:24;;;;;;;0.20;0.20;;;;;;;9.36;61.40;98465.91;5117402;23;20205;-80
2021/03/12 02:45:05;;;;;;;1.03;0.30;;;;;;;9.62;62.16;98532.16;4936120;24;20241;-84
2021/03/12 02:53:22;;;;;;;0.60;0.40;;;;;;;9.55;62.12;98544.88;5039477;23;20229;-79
2021/03/12 02:57:16;;;;;;;0.77;0.20;;;;;;;9.19;61.52;98505.97;5006621;24;20231;-83
2021/03/12 03:00:59;;;;;;;0.40;0.30;;;;;;;9.37;61.63;98566.44;4969416;23;20236;-80
2021/03/12 03:04:45;;;;;;;0.43;0.20;;;;;;;9.54;61.34;98586.03;4953402;23;20236;-78
2021/03/12 03:12:43;;;;;;;0.20;0.20;;;;;;;9.47;60.55;98625.47;4908819;29;20274;-83
2021/03/12 03:16:47;;;;;;;1.03;0.20;;;;;;;9.49;60.27;98636.72;4917822;23;20237;-82
2021/03/12 03:20:25;;;;;;;0.93;0.30;;;;;;;9.42;60.87;98655.59;4942721;24;20233;-78
2021/03/12 03:24:07;;;;;;;1.97;0.33;;;;;;;9.31;61.25;98663.63;4914789;29;20221;-80
2021/03/12 03:27:51;;;;;;;1.57;0.40;;;;;;;9.00;61.58;98622.88;4976372;23;20216;-79
2021/03/12 03:32:37;;;;;;;1.00;0.30;;;;;;;9.17;61.61;98660.38;4905410;23;20254;-78
2021/03/12 03:36:05;;;;;;;1.20;0.40;;;;;;;9.00;62.49;98662.97;4908343;23;20233;-80
2021/03/12 03:40:34;;;;;;;1.60;0.50;;;;;;;9.02;62.25;98663.53;4971409;23;20221;-79
2021/03/12 03:44:28;;;;;;;2.57;0.50;;;;;;;8.93;62.78;98664.91;4934874;29;20249;-78
2021/03/12 03:48:29;;;;;;;1.33;0.50;;;;;;;9.00;61.71;98664.81;4981311;23;20233;-79
2021/03/12 03:52:31;;;;;;;1.87;0.60;;;;;;;8.88;62.41;98650.63;5120324;23;20241;-83
2021/03/12 03:56:46;;;;;;;1.10;0.30;;;;;;;8.83;62.14;98652.13;4928329;23;20233;-80
2021/03/12 04:01:09;;;;;;;2.23;0.40;;;;;;;8.71;61.94;98666.53;4967160;23;20236;-80
2021/03/12 04:05:14;;;;;;;1.03;0.40;;;;;;;8.50;62.68;98646.53;4949597;23;20294;-78
2021/03/12 04:08:48;;;;;;;1.87;0.50;;;;;;;8.67;62.31;98686.72;4949729;23;20240;-79
2021/03/12 04:12:40;;;;;;;1.20;0.40;;;;;;;8.63;62.62;98689.03;4956074;23;20236;-81
2021/03/12 04:16:27;;;;;;;1.27;0.43;;;;;;;8.52;62.76;98726.41;4965281;23;20245;-79
2021/03/12 04:20:58;;;;;;;0.40;0.40;;;;;;;8.43;63.16;98717.91;4950907;29;20209;-79
2021/03/12 04:30:00;;;;;;;0.53;0.30;;;;;;;8.28;63.70;98720.94;4962609;23;20237;-79
2021/03/12 04:33:55;;;;;;;0.57;0.30;;;;;;;8.29;63.74;98725.28;4980882;23;20233;-78
2021/03/12 04:37:16;;;;;;;0.60;0.30;;;;;;;8.24;63.27;98725.13;5030638;23;20233;-77
2021/03/12 04:41:19;;;;;;;0.60;0.30;;;;;;;8.28;63.04;98746.81;4963859;23;20216;-78
2021/03/12 04:45:16;;;;;;;0.23;0.20;;;;;;;8.27;62.57;98746.00;4970949;23;20258;-80
2021/03/12 04:49:15;;;;;;;1.10;0.40;;;;;;;7.63;61.30;98653.28;5012328;23;20221;-80
2021/03/12 04:53:26;;;;;;;0.73;0.30;;;;;;;8.10;60.46;98742.34;4953654;23;20253;-80
2021/03/12 05:05:39;;;;;;;0.77;0.30;;;;;;;7.74;61.15;98759.19;4975721;23;20217;-79
2021/03/12 05:09:34;;;;;;;4.03;0.40;;;;;;;7.79;60.29;98774.53;4951983;29;20176;-79
2021/03/12 05:13:25;;;;;;;0.60;0.30;;;;;;;7.76;59.62;98801.63;4959570;23;20244;-80
2021/03/12 05:17:02;;;;;;;0.83;0.40;;;;;;;7.80;59.41;98830.28;4954498;23;20224;-78
2021/03/12 05:20:53;;;;;;;0.43;0.10;;;;;;;7.83;59.02;98819.19;4951476;23;20229;-79
2021/03/12 05:33:57;;;;;;;1.13;0.30;;;;;;;7.73;58.06;98864.22;4971383;23;20308;-77
2021/03/12 05:38:11;;;;;;;0.63;0.30;;;;;;;7.95;57.74;98867.28;4994041;23;20240;-79
2021/03/12 05:41:30;;;;;;;0.77;0.30;;;;;;;7.93;57.29;98866.69;4965873;23;20224;-78
2021/03/12 05:50:03;;;;;;;1.43;0.30;;;;;;;8.03;55.92;98848.28;5125872;23;20241;-78
2021/03/12 05:54:21;;;;;;;0.70;0.20;;;;;;;8.25;55.07;98865.50;4971591;23;20301;-78
2021/03/12 05:58:37;;;;;;;0.30;0.30;;;;;;;8.35;54.90;98876.50;4951623;23;20221;-79
2021/03/12 06:06:29;;;;;;;1.20;0.30;;;;;;;8.58;53.43;98849.13;4967216;23;20260;-78
2021/03/12 06:10:23;;;;;;;2.20;0.30;;;;;;;8.75;51.50;98847.44;4979705;23;20253;-81
2021/03/12 06:14:41;;;;;;;1.17;0.40;;;;;;;8.87;51.64;98849.31;4961919;23;20233;-78
2021/03/12 06:19:15;;;;;;;2.30;0.40;;;;;;;8.64;51.35;98796.66;4962376;23;20225;-79
2021/03/12 06:23:47;;;;;;;4.33;0.40;;;;;;;9.03;50.06;98873.56;4937436;23;20711;-78
2021/03/12 06:28:02;;;;;;;1.63;0.30;;;;;;;9.13;49.97;98879.16;5034262;23;20221;-78
2021/03/12 06:32:19;;;;;;;0.60;0.30;;;;;;;9.16;49.82;98865.34;4960930;23;20226;-79
2021/03/12 06:36:36;;;;;;;2.20;0.40;;;;;;;9.31;48.79;98898.84;4959176;23;20249;-78
2021/03/12 06:40:39;;;;;;;1.47;0.60;;;;;;;9.46;48.44;98907.25;4936515;29;20213;-79
2021/03/12 06:44:30;;;;;;;1.77;0.30;;;;;;;9.54;48.66;98914.94;4971923;23;20233;-79
2021/03/12 06:52:29;;;;;;;3.23;0.50;;;;;;;9.78;47.92;98926.47;4885083;23;20229;-78
2021/03/12 06:56:15;;;;;;;3.00;0.50;;;;;;;9.83;47.83;98930.09;4957879;23;20332;-79
2021/03/12 07:00:20;;;;;;;3.03;0.40;;;;;;;9.99;46.70;98950.81;4881349;29;20226;-78
2021/03/12 07:04:29;;;;;;;2.43;0.30;;;;;;;9.94;46.25;98942.66;4878043;29;20206;-79
2021/03/12 07:08:46;;;;;;;1.40;0.30;;;;;;;9.39;45.91;98877.94;5083714;23;20251;-79
2021/03/12 07:12:37;;;;;;;1.00;0.40;;;;;;;9.56;45.99;98928.91;5273789;23;20230;-80
2021/03/12 07:16:09;;;;;;;0.93;0.50;;;;;;;9.65;46.52;98954.25;4959452;23;20241;-80
2021/03/12 07:19:15;;;;;;;2.33;0.40;;;;;;;9.57;46.41;98928.66;4931144;29;20232;-82
2021/03/12 07:22:29;;;;;;;4.30;0.50;;;;;;;9.99;46.08;98987.44;4940625;29;20252;-81
2021/03/12 07:25:22;;;;;;;2.83;0.50;;;;;;;9.80;45.90;98951.16;4918045;29;20227;-79
2021/03/12 07:28:20;;;;;;;2.30;0.30;;;;;;;10.15;44.26;98992.13;4929619;29;20225;-82
2021/03/12 07:31:37;;;;;;;1.63;0.30;;;;;;;10.24;43.49;99001.47;4895896;29;20250;-82
2021/03/12 07:34:30;;;;;;;1.57;0.40;;;;;;;10.29;44.06;99006.13;4913489;29;20231;-81
2021/03/12 07:37:22;;;;;;;2.47;0.47;;;;;;;10.42;43.35;98971.06;4925647;29;20239;-81
2021/03/12 07:40:19;;;;;;;1.40;0.40;;;;;;;10.57;43.32;98991.00;4913478;29;20228;-81
2021/03/12 07:43:09;;;;;;;0.80;0.53;;;;;;;10.60;42.80;98989.69;4911690;29;20221;-81
2021/03/12 07:46:04;;;;;;;1.77;0.40;;;;;;;10.83;42.46;99015.63;4914052;29;20217;-81
2021/03/12 07:49:33;;;;;;;1.40;0.40;;;;;;;11.01;42.79;99020.84;4909878;29;20228;-82
2021/03/12 07:52:14;;;;;;;0.50;0.40;;;;;;;11.47;42.01;99031.44;4924506;29;20225;-82
2021/03/12 07:54:48;;;;;;;0.77;0.30;;;;;;;11.73;41.66;99021.19;4924113;29;20225;-82
2021/03/12 07:57:40;;;;;;;1.53;0.50;;;;;;;11.71;41.50;99034.00;4898813;29;20263;-82
2021/03/12 08:00:24;;;;;;;1.70;0.40;;;;;;;11.43;41.51;99013.38;4897556;29;20642;-82
2021/03/12 08:03:29;;;;;;;2.50;0.40;;;;;;;11.32;42.41;99022.25;4911026;29;20225;-82
2021/03/12 08:06:33;;;;;;;2.83;0.30;;;;;;;11.36;41.65;99067.16;4911345;29;20236;-80
2021/03/12 08:09:24;;;;;;;3.27;0.50;;;;;;;11.19;42.14;99060.09;4892119;29;20238;-82
2021/03/12 08:12:32;;;;;;;0.93;0.40;;;;;;;11.34;41.98;99065.72;4827426;29;20245;-81
2021/03/12 08:15:25;;;;;;;0.63;0.40;;;;;;;11.83;41.09;99037.47;4883124;29;953361;-81
2021/03/12 08:17:59;;;;;;;2.07;0.30;;;;;;;12.15;40.57;99069.94;4896076;29;20229;-83
2021/03/12 08:20:43;;;;;;;1.37;0.30;;;;;;;12.16;40.72;99068.91;4905972;29;20644;-82
2021/03/12 08:23:32;;;;;;;0.70;0.37;;;;;;;11.92;40.67;99046.75;4891722;29;20242;-82
2021/03/12 08:26:07;;;;;;;0.60;0.30;;;;;;;11.93;40.40;99053.75;4908050;29;20234;-82
2021/03/12 08:28:54;;;;;;;1.87;0.30;;;;;;;11.86;39.73;99058.44;4912345;29;20367;-81
2021/03/12 08:31:49;;;;;;;2.93;0.70;;;;;;;11.53;40.34;99052.97;4900383;29;20234;-81
2021/03/12 08:34:45;;;;;;;2.70;0.60;;;;;;;11.50;41.21;99051.59;4913832;29;20242;-81
2021/03/12 08:38:01;;;;;;;1.50;0.47;;;;;;;11.15;41.12;99050.91;4923847;29;20237;-81
2021/03/12 08:41:21;;;;;;;2.00;0.40;;;;;;;11.22;41.39;99073.00;4870622;29;20700;-82
2021/03/12 08:44:37;;;;;;;2.23;0.50;;;;;;;11.22;41.43;99054.25;4915922;29;20301;-82
2021/03/12 08:47:32;;;;;;;1.43;0.40;;;;;;;11.69;41.03;99061.06;4931394;29;20656;-81
2021/03/12 08:50:04;;;;;;;1.53;0.53;;;;;;;11.71;39.73;99058.16;4912883;29;20229;-82
2021/03/12 08:52:47;;;;;;;1.07;0.43;;;;;;;11.63;39.84;99051.28;4927462;29;20229;-82
2021/03/12 08:55:46;;;;;;;0.53;0.30;;;;;;;11.99;39.00;99044.72;4914966;29;20236;-81
2021/03/12 08:58:36;;;;;;;2.00;0.30;;;;;;;12.63;38.71;99059.44;4926866;29;20284;-81
2021/03/12 09:01:36;;;;;;;0.80;0.30;;;;;;;12.27;38.68;99055.38;4915044;29;20533;-82
2021/03/12 09:04:32;;;;;;;1.73;0.80;;;;;;;12.43;38.13;99051.06;4925597;29;20259;-82
2021/03/12 09:07:22;;;;;;;1.20;0.30;;;;;;;12.38;37.90;99042.94;4913592;29;20277;-82
2021/03/12 09:10:31;;;;;;;1.43;0.50;;;;;;;12.43;37.89;99069.06;4913317;29;20229;-82
2021/03/12 09:13:35;;;;;;;1.13;0.33;;;;;;;12.96;36.48;99060.44;4928935;29;20221;-81
2021/03/12 09:16:14;;;;;;;1.03;0.40;;;;;;;12.99;36.03;99054.56;4894997;29;20241;-81
2021/03/12 09:18:54;;;;;;;0.90;0.40;;;;;;;13.22;36.69;99070.50;4889601;29;20226;-82
2021/03/12 09:21:48;;;;;;;1.70;0.50;;;;;;;13.21;36.92;99075.06;4875234;29;20241;-81
2021/03/12 09:24:25;;;;;;;1.50;0.40;;;;;;;13.13;35.92;99067.44;4890076;29;20241;-80
2021/03/12 09:27:32;;;;;;;1.87;0.30;;;;;;;13.08;35.54;99072.69;4922931;29;20190;-80
2021/03/12 09:31:02;;;;;;;1.43;0.50;;;;;;;13.14;35.41;99081.69;4934855;29;20198;-77
2021/03/12 09:34:02;;;;;;;2.93;0.43;;;;;;;13.75;35.00;99098.56;4935163;23;20295;-80
2021/03/12 09:37:55;;;;;;;1.87;0.50;;;;;;;13.39;35.64;99090.06;4894460;29;20219;-80
2021/03/12 09:41:51;;;;;;;1.00;0.40;;;;;;;13.64;35.41;99101.13;4899148;29;20672;-83
2021/03/12 09:45:00;;;;;;;1.80;0.47;;;;;;;13.50;34.95;99083.75;4887757;29;20231;-80
2021/03/12 09:48:41;;;;;;;0.67;0.30;;;;;;;13.32;36.07;99094.00;4909126;29;20263;-81
2021/03/12 09:52:03;;;;;;;2.37;0.40;;;;;;;13.02;36.45;99094.38;4894715;29;20230;-82
2021/03/12 09:55:44;;;;;;;1.90;0.50;;;;;;;12.81;36.95;99106.75;4897084;29;20234;-83
2021/03/12 09:58:50;;;;;;;0.77;0.40;;;;;;;12.91;37.79;99098.00;4896224;29;20215;-82
2021/03/12 10:02:14;;;;;;;0.97;0.43;;;;;;;12.79;37.39;99076.59;4911990;29;20242;-81
2021/03/12 10:05:35;;;;;;;1.50;0.73;;;;;;;12.58;37.85;99098.88;4891342;29;20246;-82
2021/03/12 10:08:36;;;;;;;0.70;0.40;;;;;;;12.75;37.60;99095.09;4887756;29;20294;-83
2021/03/12 10:11:57;;;;;;;1.63;0.60;;;;;;;12.57;38.07;99110.66;4961171;24;20316;-83
2021/03/12 10:15:25;;;;;;;1.50;0.30;;;;;;;12.72;38.18;99122.47;4954352;29;20225;-82
2021/03/12 10:18:34;;;;;;;1.60;0.30;;;;;;;12.42;37.83;99107.72;4955050;29;20265;-81
2021/03/12 10:22:01;;;;;;;2.70;0.50;;;;;;;12.62;37.56;99116.13;4957015;29;20214;-82
2021/03/12 10:25:48;;;;;;;2.17;0.40;;;;;;;12.87;37.02;99113.84;4960306;23;20304;-83
2021/03/12 10:29:05;;;;;;;1.27;0.40;;;;;;;12.46;37.19;99098.16;4912188;29;20232;-84
2021/03/12 10:32:44;;;;;;;1.00;0.50;;;;;;;12.65;37.67;99108.38;4941429;23;20225;-83
2021/03/12 10:36:09;;;;;;;1.30;0.40;;;;;;;12.60;37.70;99080.59;4935267;29;20241;-83
2021/03/12 10:39:42;;;;;;;1.20;0.40;;;;;;;12.62;38.03;99106.19;4957232;29;20225;-82
2021/03/12 10:42:49;;;;;;;1.70;0.50;;;;;;;12.58;38.14;99066.63;4946213;23;20230;-83
2021/03/12 10:46:20;;;;;;;2.20;0.40;;;;;;;12.91;37.63;99117.66;4937831;29;20260;-83
2021/03/12 10:49:55;;;;;;;0.97;0.30;;;;;;;12.61;37.47;99077.69;4954874;23;20243;-83
2021/03/12 10:52:42;;;;;;;0.70;0.30;;;;;;;12.49;38.90;99114.59;4956328;29;20225;-83
2021/03/12 10:55:44;;;;;;;1.27;0.43;;;;;;;12.74;39.18;99085.41;4940190;29;20225;-81
2021/03/12 10:59:31;;;;;;;1.37;0.40;;;;;;;13.31;37.57;99076.25;4956016;29;20225;-83
2021/03/12 11:02:48;;;;;;;1.10;0.40;;;;;;;13.69;36.79;99089.63;4955224;29;20221;-83
2021/03/12 11:05:51;;;;;;;1.43;0.40;;;;;;;13.85;36.72;99077.94;4974948;23;20241;-82
2021/03/12 11:09:00;;;;;;;0.80;0.30;;;;;;;14.26;36.38;99081.84;4932353;29;20235;-83
2021/03/12 11:12:40;;;;;;;0.57;0.30;;;;;;;14.06;37.01;99077.06;4948428;29;20225;-83
2021/03/12 11:15:45;;;;;;;2.10;0.40;;;;;;;14.03;36.60;99066.00;4957745;29;20197;-83
2021/03/12 11:19:02;;;;;;;1.93;0.40;;;;;;;14.08;36.35;99079.50;4955209;29;20197;-83
2021/03/12 11:22:17;;;;;;;0.73;0.30;;;;;;;14.57;35.66;99079.41;4942246;23;20252;-84
2021/03/12 11:25:35;;;;;;;0.60;0.40;;;;;;;14.27;35.49;99072.69;4942547;24;20214;-81
2021/03/12 11:28:25;;;;;;;0.57;0.30;;;;;;;13.88;35.72;99065.84;4935105;29;20206;-79
2021/03/12 11:31:19;;;;;;;2.37;0.40;;;;;;;13.85;35.70;99053.72;4951435;29;20225;-79
2021/03/12 11:34:03;;;;;;;1.57;0.30;;;;;;;13.76;35.46;99038.28;4941897;29;20276;-81
2021/03/12 11:36:37;;;;;;;1.00;0.40;;;;;;;14.10;35.25;99045.84;4942597;29;20229;-81
2021/03/12 11:39:11;;;;;;;1.00;0.50;;;;;;;14.76;34.39;99067.94;4934313;23;20240;-79
2021/03/12 11:41:49;;;;;;;3.17;0.30;;;;;;;14.65;34.54;99066.25;4899081;29;20222;-81
2021/03/12 11:44:31;;;;;;;1.07;0.40;;;;;;;14.67;34.55;99049.81;4910083;29;20233;-77
2021/03/12 11:47:04;;;;;;;0.83;0.40;;;;;;;15.41;33.34;99074.75;4913736;29;20246;-81
2021/03/12 11:49:48;;;;;;;1.20;0.47;;;;;;;15.02;34.26;99077.00;4905249;29;20242;-79
2021/03/12 11:52:27;;;;;;;0.63;0.40;;;;;;;14.97;34.28;99064.31;4893403;29;20241;-81
2021/03/12 11:55:15;;;;;;;0.50;0.37;;;;;;;14.41;34.20;99062.31;4874667;29;20261;-79
2021/03/12 11:57:56;;;;;;;1.23;0.53;;;;;;;14.39;34.64;99059.88;4874269;29;20226;-78
2021/03/12 12:00:35;;;;;;;1.10;0.40;;;;;;;14.54;33.64;99075.34;4876688;29;20231;-79
2021/03/12 12:03:09;;;;;;;1.17;0.30;;;;;;;14.22;34.25;99061.88;4874611;29;20218;-77
2021/03/12 12:05:52;;;;;;;0.67;0.40;;;;;;;14.22;34.74;99069.13;4887629;29;20249;-77
2021/03/12 12:08:34;;;;;;;0.63;0.40;;;;;;;13.85;35.58;99045.66;4896457;29;20259;-79
2021/03/12 12:11:26;;;;;;;1.33;0.40;;;;;;;13.84;35.95;99057.47;4892299;29;20233;-79
2021/03/12 12:14:04;;;;;;;2.00;0.60;;;;;;;13.94;35.56;99049.50;4872157;29;20683;-79
2021/03/12 12:16:44;;;;;;;1.27;0.30;;;;;;;14.11;35.51;99065.53;4886467;29;20570;-81
2021/03/12 12:19:26;;;;;;;0.67;0.20;;;;;;;13.92;36.22;99054.31;4889814;29;20235;-82
2021/03/12 12:22:07;;;;;;;1.93;0.47;;;;;;;13.97;36.41;99048.97;4887086;29;20647;-79
2021/03/12 12:24:47;;;;;;;0.70;0.40;;;;;;;14.38;35.43;99060.13;4885278;29;20262;-78
2021/03/12 12:27:30;;;;;;;2.20;0.40;;;;;;;13.87;36.56;99040.78;4909196;29;20561;-79
2021/03/12 12:30:12;;;;;;;1.77;0.50;;;;;;;13.51;37.16;99028.88;4909972;29;20234;-79
2021/03/12 12:32:50;;;;;;;0.93;0.30;;;;;;;13.55;37.50;99021.09;4892411;29;20283;-79
2021/03/12 12:35:32;;;;;;;1.03;0.50;;;;;;;13.86;36.75;99022.19;4891914;29;20248;-79
2021/03/12 12:38:19;;;;;;;2.70;0.40;;;;;;;13.60;36.85;99010.38;4901608;29;20226;-79
2021/03/12 12:41:09;;;;;;;2.00;0.50;;;;;;;13.74;36.82;99025.06;4906295;29;20230;-81
2021/03/12 12:44:05;;;;;;;3.77;0.60;;;;;;;13.80;36.97;99031.31;4923713;29;20233;-83
2021/03/12 12:46:41;;;;;;;1.73;0.50;;;;;;;13.46;36.23;99009.16;4935537;29;20233;-82
2021/03/12 12:49:29;;;;;;;1.27;0.50;;;;;;;13.49;36.90;99022.09;4933921;29;20226;-82
2021/03/12 12:52:20;;;;;;;2.43;0.50;;;;;;;14.03;36.26;99010.25;4918753;29;20230;-82
2021/03/12 12:55:03;;;;;;;5.03;0.40;;;;;;;14.14;35.92;99010.34;4934593;29;20244;-80
2021/03/12 12:58:01;;;;;;;0.53;0.40;;;;;;;14.22;35.47;99016.06;4935854;29;20229;-81
2021/03/12 13:00:57;;;;;;;1.40;0.40;;;;;;;14.38;35.23;99001.66;4934079;29;20277;-81
2021/03/12 13:03:38;;;;;;;0.80;0.40;;;;;;;14.68;35.42;98992.94;4934885;29;20241;-83
2021/03/12 13:06:14;;;;;;;0.93;0.30;;;;;;;14.37;35.23;98981.16;4935258;29;20281;-83
2021/03/12 13:09:03;;;;;;;0.90;0.40;;;;;;;13.43;36.07;98959.38;4932790;29;20254;-81
2021/03/12 13:11:45;;;;;;;1.37;0.27;;;;;;;13.26;35.89;98971.25;4914510;29;20231;-79
2021/03/12 13:14:28;;;;;;;1.20;0.57;;;;;;;13.11;35.36;98950.41;4913937;29;20238;-82
2021/03/12 13:17:29;;;;;;;2.37;0.50;;;;;;;13.12;34.82;98952.84;4916726;29;20217;-81
2021/03/12 13:20:27;;;;;;;2.33;0.50;;;;;;;13.38;35.06;98964.69;4933283;29;20236;-80
2021/03/12 13:23:03;;;;;;;5.67;0.80;;;;;;;13.10;33.77;98959.50;4933159;29;20230;-82
2021/03/12 13:25:57;;;;;;;8.77;0.80;;;;;;;13.09;33.61;98964.06;4932819;29;20311;-82
2021/03/12 13:28:53;;;;;;;1.47;0.40;;;;;;;13.04;34.29;98973.94;4932579;29;20226;-82
2021/03/12 13:31:37;;;;;;;3.67;0.47;;;;;;;13.00;34.55;98965.59;4932561;29;20258;-80
2021/03/12 13:34:21;;;;;;;2.33;0.43;;;;;;;13.00;34.60;98945.94;4931993;29;20543;-80
2021/03/12 13:37:13;;;;;;;0.73;0.40;;;;;;;12.93;33.95;98958.75;4929927;29;20234;-80
2021/03/12 13:40:00;;;;;;;1.07;0.40;;;;;;;12.64;35.17;98983.16;4914165;29;20239;-82
2021/03/12 13:42:33;;;;;;;1.00;0.60;;;;;;;12.66;35.56;98964.06;4917360;29;20226;-82
2021/03/12 13:45:23;;;;;;;1.90;0.37;;;;;;;12.67;35.54;98957.63;4917053;29;20229;-82
2021/03/12 13:48:13;;;;;;;0.90;0.30;;;;;;;12.38;35.94;98934.66;4953677;23;20237;-82
2021/03/12 13:51:02;;;;;;;0.97;0.40;;;;;;;12.29;33.40;98950.41;4936381;29;20249;-81
2021/03/12 13:53:40;;;;;;;1.50;0.30;;;;;;;11.97;34.40;98920.66;4919340;29;20233;-82
2021/03/12 13:56:31;;;;;;;0.90;0.30;;;;;;;11.85;34.88;98950.25;4960346;23;20245;-82
2021/03/12 13:59:12;;;;;;;1.80;0.43;;;;;;;11.61;35.57;98919.25;4935498;29;20232;-81
2021/03/12 14:02:05;;;;;;;5.47;0.43;;;;;;;11.97;35.17;98933.28;4949234;29;20248;-80
2021/03/12 14:04:50;;;;;;;3.60;0.50;;;;;;;12.38;34.05;98940.84;4950551;29;20225;-80
2021/03/12 14:07:23;;;;;;;0.57;0.33;;;;;;;12.60;33.76;98935.50;4930321;29;20289;-79
2021/03/12 14:10:01;;;;;;;1.63;0.30;;;;;;;12.77;34.14;98955.91;4915300;29;20233;-81
2021/03/12 14:12:41;;;;;;;1.53;0.50;;;;;;;12.92;33.49;98941.84;4915887;29;20338;-82
2021/03/12 14:15:43;;;;;;;3.37;0.60;;;;;;;13.00;34.02;98919.88;4932542;29;20232;-82
2021/03/12 14:18:30;;;;;;;2.57;0.40;;;;;;;13.02;33.49;98939.25;4917515;29;20294;-82
2021/03/12 14:21:22;;;;;;;1.43;0.63;;;;;;;12.97;33.76;98906.13;4932151;29;20198;-82
2021/03/12 14:23:56;;;;;;;0.90;0.40;;;;;;;13.12;33.54;98934.00;4948199;29;20230;-80
2021/03/12 14:26:41;;;;;;;2.27;0.63;;;;;;;12.92;34.36;98898.81;4934188;29;20675;-81
2021/03/12 14:29:36;;;;;;;1.43;0.60;;;;;;;13.20;33.87;98932.75;4950754;29;20240;-80
2021/03/12 14:32:16;;;;;;;1.60;0.30;;;;;;;13.11;34.21;98910.84;4949794;29;20312;-80
2021/03/12 14:35:07;;;;;;;1.07;0.40;;;;;;;13.08;34.66;98930.16;4899689;29;20229;-79
2021/03/12 14:37:43;;;;;;;1.23;0.57;;;;;;;12.97;35.17;98898.06;4951132;29;20221;-79
2021/03/12 14:40:46;;;;;;;2.67;0.50;;;;;;;12.99;34.72;98923.63;4949741;29;20592;-78
2021/03/12 14:43:23;;;;;;;1.90;0.57;;;;;;;12.84;35.42;98912.69;4916415;29;20309;-81
2021/03/12 14:46:02;;;;;;;0.70;0.50;;;;;;;12.55;35.97;98901.31;4900299;29;20229;-78
2021/03/12 14:49:24;;;;;;;3.53;0.90;;;;;;;12.17;36.68;98912.91;4936768;29;20308;-80
2021/03/12 14:52:09;;;;;;;1.17;0.40;;;;;;;11.91;36.21;98903.66;4924867;29;20266;-78
2021/03/12 14:54:53;;;;;;;1.13;0.53;;;;;;;12.00;36.35;98914.78;4951956;29;20240;-80
2021/03/12 14:57:38;;;;;;;2.33;0.40;;;;;;;12.01;35.23;98907.56;4935424;29;20237;-80
2021/03/12 15:00:38;;;;;;;1.27;0.37;;;;;;;12.21;34.49;98915.91;4936113;29;20222;-77
2021/03/12 15:03:25;;;;;;;1.17;0.40;;;;;;;11.98;35.31;98890.09;4950186;29;20228;-80
2021/03/12 15:06:13;;;;;;;1.90;0.40;;;;;;;12.03;34.47;98908.94;4946925;29;20226;-80
2021/03/12 15:09:10;;;;;;;1.13;0.40;;;;;;;11.98;34.38;98922.28;4933517;29;20229;-83
2021/03/12 15:11:57;;;;;;;1.23;0.50;;;;;;;11.79;34.94;98897.59;4891474;29;20228;-80
2021/03/12 15:14:40;;;;;;;1.07;0.50;;;;;;;11.74;34.36;98889.44;4901587;24;20314;-79
2021/03/12 15:17:24;;;;;;;2.30;0.50;;;;;;;11.78;34.69;98901.31;4912205;29;20239;-79
2021/03/12 15:20:16;;;;;;;0.83;0.50;;;;;;;11.99;35.29;98915.06;4909987;29;20253;-80
2021/03/12 15:23:09;;;;;;;0.80;0.50;;;;;;;12.03;34.72;98913.50;4857178;29;20239;-78
2021/03/12 15:25:53;;;;;;;0.67;0.33;;;;;;;12.03;34.43;98892.84;4878307;29;20242;-78
2021/03/12 15:28:36;;;;;;;0.80;0.60;;;;;;;11.98;34.57;98886.59;4875299;29;20527;-80
2021/03/12 15:31:16;;;;;;;1.70;0.60;;;;;;;11.98;34.04;98902.69;4875239;29;20227;-78
2021/03/12 15:34:12;;;;;;;0.93;0.40;;;;;;;11.83;33.73;98895.22;4862254;29;20244;-78
2021/03/12 15:37:21;;;;;;;1.47;0.60;;;;;;;11.91;33.58;98906.34;4880420;29;20264;-78
2021/03/12 15:40:21;;;;;;;1.70;0.70;;;;;;;11.81;33.66;98897.31;4898443;29;20285;-81
2021/03/12 15:43:02;;;;;;;1.33;0.50;;;;;;;11.74;34.36;98877.91;4862519;29;20288;-80
2021/03/12 15:45:38;;;;;;;2.20;0.60;;;;;;;11.78;34.50;98882.53;4877073;29;20220;-78